Time;durP1;ratioP1;P1;durP2;ratioP2;P2;SDS_P1;SDS_P2;PMS_P1;PMS_P2;Temp;Humidity;BMP_temperature;BMP_pressure;BME280_temperature;BME280_humidity;BME280_pressure;Samples;Min_cycle;Max_cycle;Signal;HPM_P1;HPM_P2
2023/10/02 00:01:36;;;;;;;15.90;12.27;;;18.60;70.80;;;;;;5096024;28;20035;-64
2023/10/02 00:09:08;;;;;;;18.08;12.82;;;18.60;71.00;;;;;;5096504;28;20103;-65
2023/10/02 00:11:45;;;;;;;18.75;12.65;;;18.50;71.10;;;;;;5095888;28;20035;-66
2023/10/02 00:14:19;;;;;;;15.45;12.60;;;18.50;71.20;;;;;;5095863;28;20056;-63
2023/10/02 00:17:03;;;;;;;16.80;12.63;;;18.50;71.40;;;;;;5095937;28;20040;-66
2023/10/02 00:19:47;;;;;;;15.07;12.00;;;18.50;71.20;;;;;;5096230;28;20338;-66
2023/10/02 00:22:37;;;;;;;19.35;13.48;;;18.50;71.60;;;;;;5094709;28;20357;-67
2023/10/02 00:25:07;;;;;;;17.00;12.60;;;18.50;71.40;;;;;;5095590;28;20221;-66
2023/10/02 00:27:36;;;;;;;16.75;12.38;;;18.50;71.30;;;;;;5095945;28;20024;-67
2023/10/02 00:30:07;;;;;;;16.85;13.00;;;18.50;71.50;;;;;;5096199;28;20012;-67
2023/10/02 00:32:34;;;;;;;14.73;11.68;;;18.40;71.40;;;;;;5095603;28;20504;-68
2023/10/02 00:35:03;;;;;;;16.25;12.10;;;18.40;71.50;;;;;;5096048;28;20031;-66
2023/10/02 00:37:47;;;;;;;17.50;14.00;;;18.40;71.50;;;;;;5095573;28;20464;-65
2023/10/02 00:40:26;;;;;;;18.98;14.95;;;18.40;71.50;;;;;;5095395;28;20121;-65
2023/10/02 00:42:57;;;;;;;14.68;11.93;;;18.40;71.70;;;;;;5096326;28;20043;-66
2023/10/02 00:45:30;;;;;;;16.00;12.13;;;18.30;71.60;;;;;;5096021;28;20121;-66
2023/10/02 00:48:45;;;;;;;17.17;12.30;;;18.30;71.60;;;;;;5095732;28;20012;-63
2023/10/02 00:50:49;;;;;;;16.33;12.98;;;18.20;71.80;;;;;;5084472;28;20050;-64
2023/10/02 00:53:19;;;;;;;15.93;12.98;;;18.20;72.10;;;;;;5095980;28;20024;-64
2023/10/02 00:58:25;;;;;;;17.45;13.43;;;18.10;72.10;;;;;;5096177;28;20031;-65
2023/10/02 01:01:05;;;;;;;19.38;15.05;;;18.10;71.80;;;;;;5095292;28;20028;-68
2023/10/02 01:04:07;;;;;;;15.88;11.82;;;18.00;72.00;;;;;;5095239;28;20035;-65
2023/10/02 01:06:24;;;;;;;16.65;11.75;;;18.00;71.80;;;;;;5094421;28;20035;-67
2023/10/02 01:08:53;;;;;;;17.30;12.50;;;17.90;71.80;;;;;;5095234;28;20019;-65
2023/10/02 01:11:34;;;;;;;17.80;12.20;;;17.90;71.90;;;;;;5095248;28;20035;-66
2023/10/02 01:14:03;;;;;;;15.95;12.07;;;17.90;71.90;;;;;;5095805;28;20024;-68
2023/10/02 01:16:50;;;;;;;18.60;14.25;;;17.90;71.80;;;;;;5095040;28;20039;-64
2023/10/02 01:19:28;;;;;;;18.10;14.43;;;17.90;72.20;;;;;;5073278;28;20025;-64
2023/10/02 01:22:02;;;;;;;20.30;15.32;;;17.80;72.40;;;;;;5073662;28;20477;-62
2023/10/02 01:24:33;;;;;;;18.92;15.05;;;17.70;72.50;;;;;;5073023;28;20033;-67
2023/10/02 01:27:04;;;;;;;18.52;13.77;;;17.60;72.70;;;;;;5073222;28;20112;-66
2023/10/02 01:29:37;;;;;;;17.23;14.05;;;17.40;73.20;;;;;;5073592;28;20103;-67
2023/10/02 01:32:08;;;;;;;19.80;14.65;;;17.40;73.60;;;;;;5077151;28;20043;-67
2023/10/02 01:34:56;;;;;;;18.10;12.25;;;17.30;73.50;;;;;;5076789;28;20063;-65
2023/10/02 01:37:32;;;;;;;16.83;12.68;;;17.20;73.90;;;;;;5077466;28;20398;-65
2023/10/02 01:42:47;;;;;;;21.20;14.45;;;17.20;74.40;;;;;;5077297;28;20047;-62
2023/10/02 01:45:21;;;;;;;19.15;15.98;;;17.20;74.90;;;;;;5076672;28;20028;-63
2023/10/02 01:47:49;;;;;;;18.00;12.80;;;17.20;74.60;;;;;;5076635;28;20054;-67
2023/10/02 01:50:24;;;;;;;16.10;12.63;;;17.20;74.60;;;;;;5076627;28;20036;-63
2023/10/02 01:55:29;;;;;;;18.08;12.70;;;17.10;74.40;;;;;;5077009;28;20109;-66
2023/10/02 01:58:16;;;;;;;18.60;14.52;;;17.10;74.30;;;;;;5097806;28;20490;-64
2023/10/02 02:00:45;;;;;;;19.40;13.48;;;17.10;74.30;;;;;;5098264;28;20032;-67
2023/10/02 02:05:46;;;;;;;16.52;12.50;;;17.10;73.90;;;;;;5098911;28;20020;-68
2023/10/02 02:08:21;;;;;;;17.90;13.15;;;17.10;73.90;;;;;;5098859;28;20020;-65
2023/10/02 02:11:14;;;;;;;20.60;16.02;;;17.10;74.20;;;;;;5098117;28;20039;-68
2023/10/02 02:14:04;;;;;;;18.63;13.65;;;17.10;74.20;;;;;;5098089;28;20024;-68
2023/10/02 02:16:38;;;;;;;19.83;14.00;;;17.10;74.40;;;;;;5098585;28;20020;-67
2023/10/02 02:19:07;;;;;;;15.52;11.85;;;17.10;74.80;;;;;;5098354;28;20187;-66
2023/10/02 02:21:38;;;;;;;17.92;13.00;;;17.10;74.40;;;;;;5097825;28;20103;-64
2023/10/02 02:24:08;;;;;;;21.92;14.52;;;17.10;74.40;;;;;;5097837;28;20471;-65
2023/10/02 02:29:03;;;;;;;16.05;12.88;;;17.00;74.90;;;;;;5098097;28;20384;-64
2023/10/02 02:31:32;;;;;;;22.77;17.20;;;17.00;74.60;;;;;;5098357;28;20093;-65
2023/10/02 02:34:03;;;;;;;22.70;15.23;;;17.00;74.80;;;;;;5098299;28;20020;-64
2023/10/02 02:36:35;;;;;;;19.50;13.43;;;17.00;74.80;;;;;;5097545;28;20031;-67
2023/10/02 02:41:31;;;;;;;16.52;12.13;;;16.90;74.70;;;;;;5097724;28;20031;-67
2023/10/02 02:43:57;;;;;;;19.50;14.20;;;16.90;74.80;;;;;;5097572;28;20472;-65
2023/10/02 02:46:24;;;;;;;19.73;12.90;;;17.00;74.80;;;;;;5097749;28;20129;-68
2023/10/02 02:49:09;;;;;;;17.13;12.18;;;16.90;74.90;;;;;;5098028;28;20471;-66
2023/10/02 02:51:48;;;;;;;18.35;13.27;;;16.90;74.80;;;;;;5097327;28;20338;-65
2023/10/02 02:54:27;;;;;;;19.52;12.90;;;16.90;74.80;;;;;;5096298;28;20047;-66
2023/10/02 02:56:58;;;;;;;20.60;15.48;;;16.90;75.00;;;;;;5097199;28;20042;-66
2023/10/02 02:59:28;;;;;;;19.98;13.88;;;17.00;75.00;;;;;;5097484;28;20020;-67
2023/10/02 03:02:08;;;;;;;22.17;15.43;;;16.90;75.00;;;;;;5097696;28;20056;-66
2023/10/02 03:04:38;;;;;;;16.58;12.77;;;16.90;75.20;;;;;;5097733;28;20146;-66
2023/10/02 03:07:29;;;;;;;17.27;12.68;;;16.90;75.00;;;;;;5097030;28;20028;-62
2023/10/02 03:10:01;;;;;;;17.35;12.77;;;16.90;75.30;;;;;;5097052;28;20028;-65
2023/10/02 03:12:31;;;;;;;20.45;14.68;;;16.90;75.10;;;;;;5096895;28;20073;-63
2023/10/02 03:14:59;;;;;;;17.27;12.60;;;16.90;75.20;;;;;;5097384;28;20020;-67
2023/10/02 03:17:32;;;;;;;17.90;13.82;;;16.90;75.00;;;;;;5097117;28;20391;-66
2023/10/02 03:20:00;;;;;;;15.73;11.80;;;16.90;75.30;;;;;;5097400;28;20341;-64
2023/10/02 03:22:27;;;;;;;18.65;12.75;;;16.80;75.30;;;;;;5096747;28;20016;-67
2023/10/02 03:25:25;;;;;;;18.38;13.32;;;16.80;75.30;;;;;;5097039;28;20026;-64
2023/10/02 03:27:50;;;;;;;17.05;12.32;;;16.80;75.30;;;;;;5096555;28;20082;-63
2023/10/02 03:30:47;;;;;;;19.42;12.43;;;16.80;75.40;;;;;;5096586;28;20115;-67
2023/10/02 03:33:17;;;;;;;16.98;11.77;;;16.70;75.20;;;;;;5095073;28;20128;-63
2023/10/02 03:36:10;;;;;;;19.48;13.32;;;16.70;75.50;;;;;;5096791;28;20028;-64
2023/10/02 03:38:43;;;;;;;18.27;12.05;;;16.80;75.60;;;;;;5094928;28;20045;-68
2023/10/02 03:41:15;;;;;;;17.83;12.48;;;16.70;75.50;;;;;;5096635;28;20036;-64
2023/10/02 03:43:57;;;;;;;18.30;12.45;;;16.70;75.50;;;;;;5096231;28;20056;-65
2023/10/02 03:46:35;;;;;;;15.73;11.57;;;16.80;75.80;;;;;;5095382;28;20043;-64
2023/10/02 03:49:06;;;;;;;16.80;12.50;;;16.70;75.50;;;;;;5096301;28;20024;-66
2023/10/02 03:51:40;;;;;;;18.95;12.55;;;16.70;75.60;;;;;;5096284;28;20356;-67
2023/10/02 03:54:17;;;;;;;19.75;13.00;;;16.80;75.50;;;;;;5095647;28;20039;-67
2023/10/02 03:56:50;;;;;;;17.77;12.80;;;16.80;75.20;;;;;;5096698;28;20024;-63
2023/10/02 03:59:22;;;;;;;15.35;10.55;;;16.80;75.00;;;;;;5096465;28;20051;-67
2023/10/02 04:01:50;;;;;;;12.93;8.90;;;16.80;75.30;;;;;;5096756;28;20032;-65
2023/10/02 04:06:43;;;;;;;15.05;9.60;;;16.90;74.90;;;;;;5095953;28;20028;-66
2023/10/02 04:11:45;;;;;;;15.93;10.52;;;17.10;74.60;;;;;;5095901;28;20071;-63
2023/10/02 04:19:43;;;;;;;15.85;9.95;;;17.50;73.40;;;;;;5096713;28;20062;-65
2023/10/02 04:22:19;;;;;;;13.95;10.43;;;17.50;73.20;;;;;;5095661;28;20417;-67
2023/10/02 04:24:58;;;;;;;16.35;10.82;;;17.50;73.20;;;;;;5096002;28;20526;-67
2023/10/02 04:28:00;;;;;;;17.20;9.90;;;17.50;73.10;;;;;;5095664;28;20429;-66
2023/10/02 04:30:24;;;;;;;17.48;10.38;;;17.40;72.90;;;;;;5073947;28;20031;-65
2023/10/02 04:32:59;;;;;;;14.45;9.57;;;17.40;72.90;;;;;;5073960;28;20170;-67
2023/10/02 04:35:44;;;;;;;15.98;10.02;;;17.40;73.10;;;;;;5073859;28;20112;-64
2023/10/02 04:38:14;;;;;;;16.20;10.07;;;17.30;73.00;;;;;;5073966;28;20373;-64
2023/10/02 04:40:51;;;;;;;15.23;10.32;;;17.30;73.10;;;;;;5073435;28;20103;-64
2023/10/02 04:43:19;;;;;;;14.48;9.25;;;17.40;73.10;;;;;;5074188;28;20326;-65
2023/10/02 04:45:52;;;;;;;17.00;9.95;;;17.30;73.00;;;;;;5073606;28;20389;-66
2023/10/02 04:48:38;;;;;;;15.67;10.17;;;17.30;73.00;;;;;;5073538;28;20035;-67
2023/10/02 04:51:12;;;;;;;15.57;10.48;;;17.30;73.00;;;;;;5073712;28;20045;-64
2023/10/02 04:53:42;;;;;;;;;;;17.20;73.00;;;;;;5073876;28;20028;-66
2023/10/02 04:56:33;;;;;;;17.48;10.27;;;17.20;73.70;;;;;;5073426;28;19908;-64
2023/10/02 04:58:58;;;;;;;14.68;9.57;;;17.10;73.10;;;;;;5072867;28;20373;-67
2023/10/02 05:01:41;;;;;;;14.38;9.30;;;17.10;73.20;;;;;;5086470;28;20496;-65
2023/10/02 05:04:18;;;;;;;15.35;10.55;;;17.10;73.10;;;;;;5097137;28;20028;-67
2023/10/02 05:06:55;;;;;;;13.07;9.52;;;17.00;73.30;;;;;;5098438;28;20016;-62
2023/10/02 05:09:38;;;;;;;14.75;9.45;;;16.90;73.40;;;;;;5098338;28;20028;-65
2023/10/02 05:12:22;;;;;;;13.82;9.32;;;16.90;73.50;;;;;;5099804;28;20016;-65
2023/10/02 05:15:07;;;;;;;15.73;10.60;;;16.90;73.50;;;;;;5099594;28;20059;-68
2023/10/02 05:17:46;;;;;;;15.73;10.70;;;16.90;73.40;;;;;;5099207;28;20338;-66
2023/10/02 05:20:17;;;;;;;16.27;10.65;;;16.90;73.70;;;;;;5080694;28;20402;-64
2023/10/02 05:22:45;;;;;;;14.07;10.02;;;16.80;73.80;;;;;;5099060;28;20050;-64
2023/10/02 05:25:18;;;;;;;15.00;9.80;;;16.80;73.90;;;;;;5099009;28;20039;-67
2023/10/02 05:27:47;;;;;;;17.70;11.80;;;16.80;73.90;;;;;;5099068;28;20023;-67
2023/10/02 05:30:13;;;;;;;17.15;11.50;;;16.80;73.90;;;;;;5099224;28;20098;-65
2023/10/02 05:32:41;;;;;;;20.45;12.10;;;16.80;74.20;;;;;;5098827;28;20028;-67
2023/10/02 05:37:39;;;;;;;14.77;10.13;;;16.70;74.40;;;;;;5099136;28;20042;-66
2023/10/02 05:42:53;;;;;;;19.48;11.70;;;16.70;74.20;;;;;;5098704;28;20073;-66
2023/10/02 05:45:37;;;;;;;14.35;10.77;;;16.70;74.40;;;;;;5098596;28;20039;-66
2023/10/02 05:48:14;;;;;;;15.02;10.20;;;16.80;74.50;;;;;;5098344;28;20048;-66
2023/10/02 05:50:52;;;;;;;14.20;10.07;;;16.90;74.70;;;;;;5099120;28;20423;-63
2023/10/02 05:53:20;;;;;;;18.38;11.50;;;17.00;74.80;;;;;;5098373;28;20028;-64
2023/10/02 05:58:49;;;;;;;17.58;11.75;;;17.30;74.80;;;;;;5016463;28;20106;-65
2023/10/02 06:01:26;;;;;;;16.05;11.10;;;17.40;74.50;;;;;;5016363;28;20066;-65
2023/10/02 06:04:00;;;;;;;15.77;10.65;;;17.50;74.50;;;;;;5016659;28;20037;-68
2023/10/02 06:06:31;;;;;;;15.27;10.40;;;17.80;74.40;;;;;;5000111;28;20030;-66
2023/10/02 06:09:03;;;;;;;16.48;10.82;;;18.00;74.20;;;;;;5016618;28;20036;-65
2023/10/02 06:11:33;;;;;;;21.13;11.75;;;18.20;73.90;;;;;;5016526;28;20029;-65
2023/10/02 06:14:10;;;;;;;15.45;11.50;;;18.40;73.50;;;;;;5000004;28;20026;-67
2023/10/02 06:16:41;;;;;;;15.98;11.10;;;18.60;73.30;;;;;;4999227;28;20060;-68
2023/10/02 06:19:13;;;;;;;14.90;10.80;;;18.90;73.30;;;;;;5016656;28;20029;-65
2023/10/02 06:22:00;;;;;;;17.58;11.75;;;19.00;72.70;;;;;;5016294;28;20041;-65
2023/10/02 06:24:29;;;;;;;19.10;11.80;;;19.20;72.10;;;;;;5016185;28;20470;-66
2023/10/02 06:26:57;;;;;;;19.55;12.63;;;19.40;71.90;;;;;;5016141;28;20022;-63
2023/10/02 06:29:37;;;;;;;16.77;12.55;;;19.70;71.70;;;;;;5032238;28;20030;-66
2023/10/02 06:32:05;;;;;;;18.77;13.20;;;19.90;71.10;;;;;;5016085;28;20030;-62
2023/10/02 06:34:38;;;;;;;19.17;13.27;;;20.20;70.70;;;;;;5052094;28;20445;-64
2023/10/02 06:37:07;;;;;;;18.75;13.35;;;20.40;70.20;;;;;;5076547;28;20028;-66
2023/10/02 06:39:35;;;;;;;17.90;14.85;;;20.70;70.00;;;;;;5077144;28;20123;-66
2023/10/02 06:42:04;;;;;;;19.58;14.85;;;20.80;69.50;;;;;;5077546;28;20056;-63
2023/10/02 06:44:34;;;;;;;18.58;14.52;;;21.10;69.00;;;;;;5077276;28;20016;-69
2023/10/02 06:47:00;;;;;;;16.55;12.32;;;21.20;68.50;;;;;;5076242;28;20397;-65
2023/10/02 06:49:26;;;;;;;18.42;13.60;;;21.40;67.90;;;;;;5077174;28;20389;-64
2023/10/02 06:51:54;;;;;;;18.65;13.45;;;21.60;67.50;;;;;;5077095;28;20021;-64
2023/10/02 06:54:21;;;;;;;16.83;12.75;;;21.90;67.10;;;;;;5077236;28;20043;-64
2023/10/02 06:56:55;;;;;;;18.42;13.02;;;22.10;66.50;;;;;;5082746;28;20064;-66
2023/10/02 06:59:21;;;;;;;16.35;12.60;;;22.30;66.00;;;;;;5096833;28;20028;-64
2023/10/02 07:02:04;;;;;;;18.38;13.73;;;22.50;65.50;;;;;;5096605;28;20062;-63
2023/10/02 07:04:30;;;;;;;18.15;14.15;;;22.70;65.00;;;;;;5097337;28;20040;-63
2023/10/02 07:07:03;;;;;;;15.90;11.52;;;22.90;64.60;;;;;;5097074;28;20565;-65
2023/10/02 07:09:33;;;;;;;16.75;13.15;;;23.00;64.30;;;;;;5093189;28;20027;-66
2023/10/02 07:12:08;;;;;;;13.77;9.98;;;23.20;64.20;;;;;;5085413;28;20036;-66
2023/10/02 07:14:36;;;;;;;14.63;10.15;;;23.30;63.70;;;;;;5076872;28;20047;-66
2023/10/02 07:17:12;;;;;;;15.45;10.65;;;23.40;63.20;;;;;;5076745;28;20039;-66
2023/10/02 07:19:48;;;;;;;17.00;11.20;;;23.50;62.20;;;;;;5075553;28;20035;-65
2023/10/02 07:22:23;;;;;;;14.73;12.20;;;23.70;62.10;;;;;;5076380;28;20032;-65
2023/10/02 07:24:55;;;;;;;14.30;10.70;;;23.90;62.10;;;;;;5076416;28;20028;-63
2023/10/02 07:27:28;;;;;;;15.57;9.40;;;23.90;62.00;;;;;;5075262;28;20400;-68
2023/10/02 07:29:58;;;;;;;16.13;10.70;;;24.10;61.70;;;;;;5075959;28;20100;-65
2023/10/02 07:32:26;;;;;;;16.35;12.15;;;24.20;61.40;;;;;;5074853;28;20765;-66
2023/10/02 07:34:54;;;;;;;16.60;11.07;;;24.40;61.20;;;;;;5075482;28;20064;-62
2023/10/02 07:37:21;;;;;;;15.88;10.32;;;24.40;61.00;;;;;;5075279;28;20024;-64
2023/10/02 07:39:58;;;;;;;16.77;11.00;;;24.50;60.60;;;;;;5075154;28;20123;-62
2023/10/02 07:42:34;;;;;;;16.52;10.13;;;24.60;60.10;;;;;;5075592;28;20082;-64
2023/10/02 07:45:24;;;;;;;13.88;9.45;;;24.70;59.70;;;;;;5076024;28;20025;-64
2023/10/02 07:48:10;;;;;;;18.60;11.00;;;24.70;59.30;;;;;;5075061;28;20434;-66
2023/10/02 07:50:39;;;;;;;16.85;11.55;;;24.80;59.10;;;;;;5075903;28;20075;-66
2023/10/02 07:53:06;;;;;;;16.92;11.68;;;24.80;58.90;;;;;;5075874;28;20346;-63
2023/10/02 07:55:39;;;;;;;15.82;11.45;;;24.80;58.80;;;;;;5075764;28;20461;-65
2023/10/02 07:58:07;;;;;;;17.95;12.13;;;24.80;58.90;;;;;;5076176;28;20028;-65
2023/10/02 08:00:39;;;;;;;13.70;9.80;;;24.80;59.00;;;;;;5075755;28;20024;-67
2023/10/02 08:03:31;;;;;;;18.23;11.73;;;24.80;58.70;;;;;;5076324;28;20346;-67
2023/10/02 08:05:56;;;;;;;18.50;10.90;;;24.80;58.30;;;;;;5075531;28;20032;-67
2023/10/02 08:08:25;;;;;;;17.17;11.15;;;24.70;58.40;;;;;;5075750;28;20016;-63
2023/10/02 08:10:55;;;;;;;18.73;12.57;;;24.70;58.10;;;;;;5075697;28;20081;-64
2023/10/02 08:13:32;;;;;;;18.95;13.50;;;24.60;57.90;;;;;;5076266;28;20036;-65
2023/10/02 08:16:01;;;;;;;17.05;12.07;;;24.50;57.00;;;;;;5075493;28;20027;-64
2023/10/02 08:18:28;;;;;;;18.48;12.43;;;24.20;58.30;;;;;;5075543;28;20039;-66
2023/10/02 08:20:55;;;;;;;16.33;11.70;;;24.10;58.50;;;;;;5075556;28;20035;-65
2023/10/02 08:23:23;;;;;;;14.30;9.85;;;24.10;59.10;;;;;;5075449;28;20377;-62
2023/10/02 08:26:06;;;;;;;19.85;11.68;;;24.10;59.20;;;;;;5075814;28;20016;-65
2023/10/02 08:28:37;;;;;;;17.65;11.80;;;24.20;58.90;;;;;;5075802;28;20339;-64
2023/10/02 08:31:03;;;;;;;17.38;11.73;;;24.30;58.70;;;;;;5058376;28;20032;-64
2023/10/02 08:33:33;;;;;;;19.50;10.55;;;24.30;58.90;;;;;;5075464;28;20058;-64
2023/10/02 08:36:09;;;;;;;15.07;10.68;;;24.40;58.80;;;;;;5075579;28;20035;-65
2023/10/02 08:38:36;;;;;;;21.20;11.48;;;24.40;58.50;;;;;;5074959;28;20032;-64
2023/10/02 08:41:07;;;;;;;15.98;10.73;;;24.40;58.70;;;;;;5075609;28;20024;-64
2023/10/02 08:43:41;;;;;;;17.67;10.95;;;24.30;58.70;;;;;;5075301;28;20021;-64
2023/10/02 08:46:08;;;;;;;16.98;12.25;;;24.30;58.90;;;;;;5082079;28;20020;-67
2023/10/02 08:48:34;;;;;;;19.85;13.25;;;24.30;59.00;;;;;;5093589;28;20031;-66
2023/10/02 08:51:00;;;;;;;18.00;12.27;;;24.30;59.00;;;;;;5093708;28;20024;-66
2023/10/02 08:53:26;;;;;;;21.45;13.15;;;24.40;59.00;;;;;;5093735;28;20036;-64
2023/10/02 08:56:01;;;;;;;17.27;12.50;;;24.30;58.60;;;;;;5093566;28;20042;-64
2023/10/02 08:58:27;;;;;;;20.15;12.55;;;24.20;58.90;;;;;;5092940;28;20032;-64
2023/10/02 09:03:41;;;;;;;17.65;12.15;;;24.20;58.40;;;;;;5095081;28;20350;-66
2023/10/02 09:06:30;;;;;;;20.05;13.52;;;24.20;59.00;;;;;;5095665;28;20149;-64
2023/10/02 09:09:16;;;;;;;14.85;10.80;;;24.20;59.70;;;;;;5095644;28;20356;-68
2023/10/02 09:11:52;;;;;;;15.65;10.48;;;24.30;59.60;;;;;;5095305;28;20040;-66
2023/10/02 09:20:38;;;;;;;17.92;11.45;;;24.60;58.90;;;;;;5095552;28;20158;-66
2023/10/02 09:23:09;;;;;;;15.10;11.80;;;24.70;58.80;;;;;;5078583;28;20059;-63
2023/10/02 09:25:40;;;;;;;15.93;10.70;;;24.80;58.20;;;;;;5095367;28;20070;-66
2023/10/02 09:28:26;;;;;;;16.20;11.75;;;24.80;58.10;;;;;;5095157;28;20026;-64
2023/10/02 09:31:14;;;;;;;20.77;11.50;;;24.90;58.00;;;;;;5095117;28;20483;-64
2023/10/02 09:33:41;;;;;;;17.20;11.25;;;24.90;58.20;;;;;;5094910;28;20515;-66
2023/10/02 09:36:15;;;;;;;14.77;10.30;;;24.90;58.20;;;;;;5095169;28;20028;-67
2023/10/02 09:38:42;;;;;;;13.75;9.60;;;24.90;58.00;;;;;;5095200;28;20498;-68
2023/10/02 09:41:20;;;;;;;13.88;9.48;;;25.00;57.90;;;;;;5094990;28;20111;-64
2023/10/02 09:43:49;;;;;;;13.35;10.13;;;25.10;58.30;;;;;;5095298;28;20107;-66
2023/10/02 09:46:29;;;;;;;16.70;10.13;;;25.20;58.10;;;;;;5094336;28;20045;-65
2023/10/02 09:49:10;;;;;;;13.48;9.57;;;25.20;57.80;;;;;;5094962;28;20024;-67
2023/10/02 09:52:15;;;;;;;17.45;12.25;;;25.30;57.70;;;;;;5096941;28;20050;-64
2023/10/02 09:55:03;;;;;;;16.98;10.60;;;25.30;57.40;;;;;;5098919;28;20099;-65
2023/10/02 09:57:38;;;;;;;17.10;12.85;;;25.20;56.70;;;;;;5098471;28;20035;-66
2023/10/02 10:03:34;;;;;;;15.77;10.60;;;25.20;57.20;;;;;;5098964;28;20082;-63
2023/10/02 10:06:19;;;;;;;17.08;12.68;;;25.30;57.20;;;;;;5098684;28;20026;-65
2023/10/02 10:12:22;;;;;;;15.50;9.93;;;25.20;56.50;;;;;;5098314;28;20108;-64
2023/10/02 10:15:26;;;;;;;15.52;10.32;;;25.20;56.70;;;;;;5098091;28;20081;-65
2023/10/02 10:17:55;;;;;;;16.70;11.02;;;25.30;56.10;;;;;;5098146;28;20032;-65
2023/10/02 10:20:26;;;;;;;14.27;9.48;;;25.40;56.40;;;;;;5098370;28;20122;-66
2023/10/02 10:22:57;;;;;;;15.00;10.43;;;25.40;56.40;;;;;;5097962;28;20024;-65
2023/10/02 10:25:23;;;;;;;15.13;9.48;;;25.50;56.10;;;;;;5098206;28;20475;-65
2023/10/02 10:27:54;;;;;;;13.77;9.77;;;25.50;56.40;;;;;;5096977;28;20024;-68
2023/10/02 10:30:24;;;;;;;12.82;9.73;;;25.60;56.20;;;;;;5097835;28;20107;-67
2023/10/02 10:35:37;;;;;;;15.15;10.43;;;25.80;55.70;;;;;;5097787;28;20071;-67
2023/10/02 10:40:47;;;;;;;15.68;11.45;;;25.70;55.10;;;;;;5097529;28;20112;-63
2023/10/02 10:43:15;;;;;;;19.02;13.20;;;25.80;55.50;;;;;;5097650;28;20028;-67
2023/10/02 10:45:41;;;;;;;16.67;11.60;;;25.80;55.20;;;;;;5097528;28;20464;-65
2023/10/02 10:48:23;;;;;;;17.98;10.75;;;25.90;55.10;;;;;;5097845;28;20037;-65
2023/10/02 10:50:59;;;;;;;17.25;12.63;;;25.80;54.50;;;;;;5097254;28;20323;-65
2023/10/02 10:53:28;;;;;;;16.80;10.77;;;25.70;54.90;;;;;;5097758;28;20020;-64
2023/10/02 10:56:23;;;;;;;14.85;10.35;;;25.70;54.60;;;;;;5097695;28;20487;-62
2023/10/02 10:59:11;;;;;;;13.55;10.55;;;25.60;54.80;;;;;;5097658;28;20024;-64
2023/10/02 11:02:09;;;;;;;17.02;10.30;;;25.70;54.70;;;;;;5097001;28;20039;-66
2023/10/02 11:04:53;;;;;;;15.75;10.40;;;25.60;54.00;;;;;;5097562;28;20027;-63
2023/10/02 11:07:25;;;;;;;16.95;11.13;;;25.70;53.90;;;;;;5096977;28;20032;-66
2023/10/02 11:10:19;;;;;;;13.60;10.95;;;25.70;54.50;;;;;;5097131;28;20030;-66
2023/10/02 11:15:28;;;;;;;14.10;9.98;;;25.90;54.60;;;;;;5097793;28;20020;-66
2023/10/02 11:18:23;;;;;;;16.93;10.60;;;25.90;54.80;;;;;;5097006;28;20032;-65
2023/10/02 11:20:54;;;;;;;14.35;9.60;;;26.00;53.60;;;;;;5097178;28;20245;-66
2023/10/02 11:23:40;;;;;;;13.82;10.20;;;26.10;54.10;;;;;;5096811;28;20036;-65
2023/10/02 11:26:15;;;;;;;13.35;9.60;;;26.10;53.50;;;;;;5096706;28;20402;-66
2023/10/02 11:28:49;;;;;;;15.52;10.90;;;26.10;53.90;;;;;;5095920;28;20035;-64
2023/10/02 11:31:32;;;;;;;14.68;10.45;;;26.20;53.50;;;;;;5096703;28;20024;-67
2023/10/02 11:34:05;;;;;;;18.73;10.95;;;26.10;52.90;;;;;;5097274;28;20020;-67
2023/10/02 11:36:52;;;;;;;;;;;26.00;53.10;;;;;;5097089;28;20134;-67
2023/10/02 11:39:26;;;;;;;18.75;10.85;;;26.00;52.20;;;;;;5096194;28;19927;-63
2023/10/02 11:41:59;;;;;;;14.68;10.13;;;25.90;52.30;;;;;;5096428;28;20024;-66
2023/10/02 11:44:26;;;;;;;;;;;26.00;52.50;;;;;;5096826;28;20066;-66
2023/10/02 11:46:59;;;;;;;15.75;10.20;;;25.90;52.30;;;;;;5096270;28;19911;-63
2023/10/02 11:49:33;;;;;;;14.23;10.30;;;25.90;52.30;;;;;;5096840;28;20315;-64
2023/10/02 11:52:00;;;;;;;12.82;10.45;;;25.90;52.80;;;;;;5096653;28;20062;-63
2023/10/02 11:56:59;;;;;;;15.38;11.27;;;25.90;52.90;;;;;;5096910;28;20119;-67
2023/10/02 11:59:28;;;;;;;17.80;13.50;;;25.90;52.90;;;;;;5096151;28;20051;-65
2023/10/02 12:01:57;;;;;;;13.20;10.57;;;26.00;52.90;;;;;;5096281;28;20059;-66
2023/10/02 12:04:26;;;;;;;14.43;10.88;;;26.10;52.90;;;;;;5096602;28;20016;-63
2023/10/02 12:07:06;;;;;;;18.00;13.00;;;26.20;52.10;;;;;;5094959;28;20028;-66
2023/10/02 12:09:33;;;;;;;19.08;13.63;;;26.10;52.50;;;;;;5096517;28;20424;-65
2023/10/02 12:12:01;;;;;;;14.73;10.48;;;26.00;52.60;;;;;;5096211;28;20152;-64
2023/10/02 12:14:34;;;;;;;13.25;10.65;;;26.00;53.00;;;;;;5095307;28;20028;-63
2023/10/02 12:17:02;;;;;;;13.93;10.18;;;26.10;53.30;;;;;;5095790;28;20054;-65
2023/10/02 12:21:59;;;;;;;15.43;10.93;;;26.20;53.00;;;;;;5096477;28;20318;-67
2023/10/02 12:24:27;;;;;;;15.23;11.10;;;26.20;53.00;;;;;;5095750;28;20023;-66
2023/10/02 12:26:54;;;;;;;16.58;11.07;;;26.20;52.80;;;;;;5095568;28;20505;-68
2023/10/02 12:29:21;;;;;;;18.52;11.75;;;26.20;53.00;;;;;;5095639;28;20449;-65
2023/10/02 12:31:48;;;;;;;16.60;11.60;;;26.10;52.90;;;;;;5096095;28;20357;-63
2023/10/02 12:34:18;;;;;;;14.27;10.90;;;26.10;52.90;;;;;;5095559;28;20059;-65
2023/10/02 12:36:49;;;;;;;16.13;11.27;;;26.20;52.80;;;;;;5077964;28;20024;-66
2023/10/02 12:39:17;;;;;;;15.57;11.25;;;26.20;52.50;;;;;;5095065;28;20119;-64
2023/10/02 12:41:44;;;;;;;16.05;11.50;;;26.30;52.50;;;;;;5095990;28;20035;-66
2023/10/02 12:44:14;;;;;;;15.27;10.82;;;26.30;52.10;;;;;;5096023;28;20027;-66
2023/10/02 12:46:44;;;;;;;17.42;11.40;;;26.20;52.30;;;;;;5095577;28;20440;-66
2023/10/02 12:49:14;;;;;;;16.23;11.00;;;26.20;52.60;;;;;;5095434;28;20024;-65
2023/10/02 12:51:50;;;;;;;15.05;10.82;;;26.30;52.40;;;;;;5095391;28;20035;-67
2023/10/02 12:54:16;;;;;;;18.98;11.18;;;26.30;52.20;;;;;;5095952;28;20069;-64
2023/10/02 12:56:45;;;;;;;16.30;11.15;;;26.40;52.30;;;;;;5095319;28;20036;-64
2023/10/02 12:59:15;;;;;;;15.77;11.48;;;26.40;52.50;;;;;;5095901;28;20051;-64
2023/10/02 13:01:41;;;;;;;16.13;10.52;;;26.40;52.30;;;;;;5095876;28;20030;-67
2023/10/02 13:04:12;;;;;;;18.10;11.13;;;26.50;52.30;;;;;;5095373;28;20498;-65
2023/10/02 13:06:38;;;;;;;14.23;9.98;;;26.50;52.20;;;;;;5095237;28;20032;-65
2023/10/02 13:09:14;;;;;;;14.55;9.90;;;26.60;52.30;;;;;;5095908;28;20434;-66
2023/10/02 13:11:41;;;;;;;12.88;9.27;;;26.60;52.20;;;;;;5095580;28;20059;-63
2023/10/02 13:14:16;;;;;;;13.13;9.80;;;26.60;52.20;;;;;;5095575;28;20062;-64
2023/10/02 13:16:45;;;;;;;14.52;11.00;;;26.70;52.10;;;;;;5095719;28;20028;-64
2023/10/02 13:19:16;;;;;;;13.90;10.68;;;26.70;52.00;;;;;;5095186;28;20040;-66
2023/10/02 13:26:55;;;;;;;16.75;12.02;;;26.50;50.90;;;;;;5098017;28;20035;-64
2023/10/02 13:29:22;;;;;;;14.45;11.23;;;26.40;51.30;;;;;;5099677;28;20024;-64
2023/10/02 13:31:53;;;;;;;15.68;11.38;;;26.40;51.40;;;;;;5099290;28;20028;-65
2023/10/02 13:34:21;;;;;;;16.13;10.60;;;26.30;51.40;;;;;;5097954;28;20056;-64
2023/10/02 13:36:48;;;;;;;15.63;11.40;;;26.30;51.70;;;;;;5098171;28;20043;-62
2023/10/02 13:39:19;;;;;;;12.98;9.60;;;26.30;51.80;;;;;;5098737;28;20044;-65
2023/10/02 13:41:47;;;;;;;13.30;9.90;;;26.30;52.00;;;;;;5098806;28;20484;-64
2023/10/02 13:49:20;;;;;;;15.73;10.43;;;26.50;51.60;;;;;;5099265;28;20344;-62
2023/10/02 13:51:47;;;;;;;15.90;11.43;;;26.40;51.60;;;;;;5099005;28;20051;-63
2023/10/02 13:54:15;;;;;;;15.25;10.00;;;26.40;51.70;;;;;;5098654;28;20066;-65
2023/10/02 13:56:41;;;;;;;15.25;10.55;;;26.40;51.90;;;;;;5098570;28;20035;-63
2023/10/02 13:59:07;;;;;;;14.70;10.20;;;26.40;51.90;;;;;;5098536;28;20465;-63
2023/10/02 14:01:33;;;;;;;13.20;9.55;;;26.50;51.70;;;;;;5097369;28;20027;-64
2023/10/02 14:04:00;;;;;;;17.10;9.88;;;26.50;51.50;;;;;;5098434;28;20028;-64
2023/10/02 14:06:28;;;;;;;16.15;10.60;;;26.50;51.50;;;;;;5092942;28;20024;-66
2023/10/02 14:08:55;;;;;;;16.02;11.55;;;26.40;51.60;;;;;;5097617;28;20028;-65
2023/10/02 14:11:23;;;;;;;14.75;10.90;;;26.50;51.80;;;;;;5097838;28;20028;-66
2023/10/02 14:13:53;;;;;;;19.13;12.88;;;26.50;51.60;;;;;;5098289;28;20032;-66
2023/10/02 14:16:20;;;;;;;14.50;10.48;;;26.50;51.80;;;;;;5098389;28;20028;-68
2023/10/02 14:18:53;;;;;;;15.95;11.80;;;26.50;51.90;;;;;;5098711;28;20039;-66